Auburn, New York
Current Conditions -  °F | °C
As of 8:54 AM on Monday 26 Jan 2015 (Local Time) from KSYR Reporting Station
Overcast Overcast  
Wind Chill: -19°   Ceiling: 6000
Heat Index: -13°   Visibility: 10mi
Dew Point: -18°   Wind: 6mph
Humidity: 70%   Direction: 60°ENE
Pressure: 30.02"   Gusts: NA
Location:  42.93°N, 76.56°W
Report Text: KSYR 261354Z 06005KT 10SM OVC060 M13/M18 A3002 RMK AO2 SLP173 T11331178 $
Loading
Personal Weather Stations






























Interactive Weather Map New forecast layout! Learn more

10-Day Weather Forecast

Advertisements
Track Severe Weather on mobile